Garnett, SC (29922)

9:17 AM EST on November 24, 2014 (GMT -0500)
Ebenezer | Change Station
CLOSE
Current Station
Personal Weather Station
Location: Rincon, GA
Elevation: 69 ft
Nearby Weather Stations

Elev 69 ft 32.33 °N, 81.24 °W | Updated 1 second ago

Overcast
Overcast
73.9 °F
Feels Like 73.9 °F
N
2.2
Wind Variable Wind from South
Gusts 8.3 mph

Today
High -- | Low -- °F
--% Chance of Precip.
Yesterday
High -- | Low -- °F
Precip. -- in
7:02 AM 5:20 PM
Waxing Crescent, 5% visible
Pressure 29.86 in
Visibility 4.0 miles
Clouds Mostly Cloudy 700 ft
Overcast 1200 ft
Dew Point 74 °F
Humidity 99%
Rainfall 0.11 in
Snow Depth Not available.
UV 0.0 out of 12
Pollen 1.80 out of 12
Air Quality Not available.
Flu Activity Not available.
METAR KJYL 241355Z AUTO 20005KT 4SM RA BKN007 OVC012 21/21 A2986 RMK AO2 T02080205

More Conditions Fewer Conditions

Pressure 29.86 in
Visibility 4.0 miles
Clouds Mostly Cloudy 700 ft
Overcast 1200 ft
Dew Point 74 °F
Humidity 99%
Rainfall 0.11 in
Snow Depth Not available.
UV 0.0 out of 12
Pollen 1.80 out of 12
Air Quality Not available.
Flu Activity Not available.
METAR KJYL 241355Z AUTO 20005KT 4SM RA BKN007 OVC012 21/21 A2986 RMK AO2 T02080205

More Conditions Fewer Conditions

10-Day Weather Forecast

Almanac

Astronomy

Nov. 24, 2014 Rise Set
Actual Time
Civil Twilight
Nautical Twilight
Astronomical Twilight
Moon
Length of Visible Light
Length of Day
Tomorrow will be .
, % of the Moon is Illuminated

Today's Extremes

State Highs State Lows

Community

WunderPhotos

Upload Photos

1,773,332 photos uploaded!

WunderBlogs® & News

Nearby

Air Quality

  Air Quality AQ Index Pollutant
Not available.

Snow Depth

Station Depth Elevation

Earthquake Activity

City Distance Mag. Time & Date
Minimum magnitude displayed is 2.5.

Coastal Water Temperatures

Place Temperature

Nearby Weather Stations